Time;durP1;ratioP1;P1;durP2;ratioP2;P2;SDS_P1;SDS_P2;PMS_P1;PMS_P2;Temp;Humidity;BMP_temperature;BMP_pressure;BME280_temperature;BME280_humidity;BME280_pressure;Samples;Min_cycle;Max_cycle;Signal;HPM_P1;HPM_P2
2021/10/07 00:00:05;;;;;;;26.00;9.40;;;;;;;7.99;43.75;101942.19;126276;1099;104178;-78
2021/10/07 00:03:05;;;;;;;31.00;8.63;;;;;;;7.94;43.87;101941.86;126229;1099;104370;-79
2021/10/07 00:05:36;;;;;;;26.47;8.80;;;;;;;7.91;43.80;101937.32;126321;1099;104149;-78
2021/10/07 00:08:08;;;;;;;26.53;9.07;;;;;;;7.87;44.10;101934.42;126237;1099;104322;-79
2021/10/07 00:10:39;;;;;;;25.23;8.90;;;;;;;7.86;43.97;101938.72;126200;1099;104178;-79
2021/10/07 00:13:10;;;;;;;24.27;8.77;;;;;;;7.79;43.91;101932.95;126300;1099;104273;-79
2021/10/07 00:15:40;;;;;;;30.47;10.30;;;;;;;7.76;44.23;101937.97;126299;1099;104252;-79
2021/10/07 00:18:11;;;;;;;29.50;10.20;;;;;;;7.72;44.23;101931.63;126260;1099;104881;-78
2021/10/07 00:20:42;;;;;;;26.87;9.50;;;;;;;7.69;44.17;101931.41;126300;1099;104233;-79
2021/10/07 00:23:17;;;;;;;25.20;8.60;;;;;;;7.66;44.56;101933.81;126298;1099;104274;-78
2021/10/07 00:25:50;;;;;;;27.87;8.53;;;;;;;7.63;44.69;101933.59;126332;1099;104153;-78
2021/10/07 00:28:23;;;;;;;22.80;8.55;;;;;;;7.60;44.66;101930.77;126197;1099;104169;-79
2021/10/07 00:30:57;;;;;;;26.30;9.43;;;;;;;7.56;44.63;101930.55;126328;1099;104149;-79
2021/10/07 00:33:34;;;;;;;28.43;10.50;;;;;;;7.47;44.95;101924.67;126340;1099;104602;-79
2021/10/07 00:36:14;;;;;;;27.63;9.43;;;;;;;7.44;44.93;101923.55;126311;1099;104384;-79
2021/10/07 00:41:32;;;;;;;27.33;9.33;;;;;;;7.39;45.09;101928.45;126320;1099;104172;-78
2021/10/07 00:44:09;;;;;;;26.83;9.17;;;;;;;7.39;44.65;101931.06;126311;1099;104160;-78
2021/10/07 00:46:51;;;;;;;33.10;10.47;;;;;;;7.38;45.12;101932.74;126301;1099;104301;-78
2021/10/07 00:49:27;;;;;;;27.60;10.43;;;;;;;7.35;45.45;101935.17;126119;1099;104341;-80
2021/10/07 00:52:00;;;;;;;29.77;9.97;;;;;;;7.30;45.29;101933.91;126333;1099;104194;-78
2021/10/07 00:54:31;;;;;;;27.73;9.90;;;;;;;7.18;45.42;101933.95;126271;1099;104290;-78
2021/10/07 00:57:08;;;;;;;32.50;9.67;;;;;;;7.15;45.47;101931.12;126314;1099;104178;-78
2021/10/07 00:59:39;;;;;;;34.40;10.25;;;;;;;7.07;45.73;101934.85;126280;1099;104182;-78
2021/10/07 01:02:12;;;;;;;26.53;10.00;;;;;;;6.95;45.63;101932.28;126274;1099;104169;-79
2021/10/07 01:04:44;;;;;;;24.47;10.03;;;;;;;6.88;45.78;101929.10;126261;1099;104172;-79
2021/10/07 01:07:17;;;;;;;27.43;9.47;;;;;;;6.87;46.02;101937.72;126283;1099;104147;-79
2021/10/07 01:09:48;;;;;;;26.83;9.30;;;;;;;6.86;46.13;101934.20;126291;1098;104156;-78
2021/10/07 01:12:19;;;;;;;33.40;9.97;;;;;;;6.84;46.06;101931.48;126318;1099;104611;-78
2021/10/07 01:14:52;;;;;;;32.73;9.87;;;;;;;6.84;46.33;101928.87;126301;1099;104179;-78
2021/10/07 01:17:25;;;;;;;39.67;9.77;;;;;;;6.82;45.70;101935.70;126287;1099;104150;-79
2021/10/07 01:19:58;;;;;;;31.12;10.53;;;;;;;6.80;46.13;101932.05;126252;1099;104187;-79
2021/10/07 01:22:30;;;;;;;29.17;11.13;;;;;;;6.80;46.50;101929.44;126318;1099;104143;-78
2021/10/07 01:25:02;;;;;;;34.93;10.53;;;;;;;6.77;46.32;101929.20;126325;1097;104156;-78
2021/10/07 01:27:37;;;;;;;27.50;10.20;;;;;;;6.79;46.25;101927.64;126287;1099;104216;-79
2021/10/07 01:30:11;;;;;;;28.27;10.33;;;;;;;6.80;46.34;101928.53;126247;1099;104147;-79
2021/10/07 01:32:44;;;;;;;29.47;10.50;;;;;;;6.79;46.45;101930.25;126353;1099;104149;-79
2021/10/07 01:35:15;;;;;;;26.13;10.60;;;;;;;6.78;46.56;101927.53;126309;1099;104205;-78
2021/10/07 01:37:46;;;;;;;31.23;10.37;;;;;;;6.75;46.69;101937.73;126301;1099;104198;-79
2021/10/07 01:40:18;;;;;;;27.23;9.10;;;;;;;6.70;46.50;101933.86;126284;1099;104348;-79
2021/10/07 01:42:49;;;;;;;28.50;10.13;;;;;;;6.66;46.07;101933.62;126341;1099;104627;-79
2021/10/07 01:45:22;;;;;;;28.70;8.80;;;;;;;6.61;46.71;101931.48;126265;1099;104628;-78
2021/10/07 01:47:54;;;;;;;29.67;9.97;;;;;;;6.55;46.49;101933.64;126303;1099;104270;-79
2021/10/07 01:50:26;;;;;;;32.13;9.23;;;;;;;6.53;46.68;101928.31;126264;1099;104302;-78
2021/10/07 01:52:57;;;;;;;33.37;9.90;;;;;;;6.56;46.75;101932.83;126298;1099;104149;-78
2021/10/07 01:55:29;;;;;;;31.80;10.17;;;;;;;6.57;46.58;101937.26;126320;1099;104440;-79
2021/10/07 01:57:59;;;;;;;28.37;9.53;;;;;;;6.55;46.73;101938.86;126302;1099;104146;-79
2021/10/07 02:00:30;;;;;;;28.67;9.47;;;;;;;6.53;46.81;101935.20;126266;1099;104152;-78
2021/10/07 02:03:02;;;;;;;30.23;9.47;;;;;;;6.51;46.79;101935.09;126294;1099;104242;-78
2021/10/07 02:05:34;;;;;;;30.53;9.27;;;;;;;6.52;46.78;101941.23;126287;1099;104156;-78
2021/10/07 02:08:05;;;;;;;32.40;10.53;;;;;;;6.47;46.87;101952.22;126282;1099;104172;-78
2021/10/07 02:10:36;;;;;;;25.20;9.40;;;;;;;6.39;46.91;101944.59;126258;1099;104297;-79
2021/10/07 02:13:07;;;;;;;31.63;9.80;;;;;;;6.33;46.91;101947.66;126331;1099;104277;-79
2021/10/07 02:15:38;;;;;;;29.53;10.27;;;;;;;6.28;47.13;101954.23;126323;1099;104386;-79
2021/10/07 02:18:10;;;;;;;32.30;10.90;;;;;;;6.22;47.24;101952.06;126274;1099;104271;-79
2021/10/07 02:20:41;;;;;;;32.47;10.10;;;;;;;6.16;47.55;101948.98;126212;1099;104184;-78
2021/10/07 02:23:12;;;;;;;31.43;10.47;;;;;;;6.18;47.33;101943.89;126275;1099;104200;-78
2021/10/07 02:25:43;;;;;;;24.17;9.57;;;;;;;6.20;47.43;101944.90;126323;1099;104146;-79
2021/10/07 02:28:14;;;;;;;29.67;9.40;;;;;;;6.18;47.31;101946.49;126303;1099;104286;-79
2021/10/07 02:30:46;;;;;;;26.47;9.07;;;;;;;6.19;47.65;101945.71;126257;1099;104188;-80
2021/10/07 02:33:17;;;;;;;26.70;9.70;;;;;;;6.19;47.78;101940.50;126237;1099;104181;-79
2021/10/07 02:35:48;;;;;;;31.20;9.80;;;;;;;6.16;47.87;101946.38;126307;1099;104232;-78
2021/10/07 02:38:21;;;;;;;25.33;9.53;;;;;;;6.17;47.80;101949.88;126229;1099;104434;-80
2021/10/07 02:40:51;;;;;;;26.63;9.57;;;;;;;6.14;47.74;101949.64;126127;1099;104316;-79
2021/10/07 02:43:22;;;;;;;26.93;9.83;;;;;;;6.12;47.73;101952.13;126217;1099;104424;-79
2021/10/07 02:45:53;;;;;;;31.10;9.87;;;;;;;6.14;47.56;101950.57;126209;1099;104316;-79
2021/10/07 02:48:24;;;;;;;29.07;9.47;;;;;;;6.12;48.06;101954.73;126218;1099;104660;-78
2021/10/07 02:50:55;;;;;;;34.80;10.27;;;;;;;6.06;47.90;101952.59;126169;1099;104316;-78
2021/10/07 02:53:30;;;;;;;29.90;11.10;;;;;;;6.01;48.30;101956.52;125302;1099;104184;-79
2021/10/07 02:56:01;;;;;;;34.83;12.07;;;;;;;6.01;47.91;101956.52;126161;1099;104386;-79
2021/10/07 02:58:32;;;;;;;33.27;12.33;;;;;;;6.03;48.09;101962.77;126173;1099;104168;-78
2021/10/07 03:01:03;;;;;;;31.07;11.07;;;;;;;6.02;48.25;101954.84;126133;1099;104184;-79
2021/10/07 03:03:34;;;;;;;31.10;11.23;;;;;;;6.02;48.42;101960.95;126215;1099;104143;-79
2021/10/07 03:06:05;;;;;;;30.23;11.40;;;;;;;6.01;47.91;101961.72;126151;1099;104256;-79
2021/10/07 03:08:36;;;;;;;32.70;10.40;;;;;;;5.99;48.31;101965.92;126154;1099;104264;-78
2021/10/07 03:11:07;;;;;;;34.23;11.00;;;;;;;5.99;48.12;101963.31;126277;1099;104258;-79
2021/10/07 03:13:38;;;;;;;28.87;10.70;;;;;;;6.00;48.17;101962.53;126319;1099;104184;-79
2021/10/07 03:16:09;;;;;;;28.53;10.60;;;;;;;6.01;48.45;101964.33;126334;1099;104210;-79
2021/10/07 03:18:40;;;;;;;26.50;10.83;;;;;;;6.04;48.52;101969.78;126331;1099;104281;-78
2021/10/07 03:21:11;;;;;;;30.73;10.43;;;;;;;6.04;48.70;101969.78;126197;1099;104255;-79
2021/10/07 03:23:42;;;;;;;29.87;11.43;;;;;;;6.03;48.49;101970.59;126301;1097;104137;-78
2021/10/07 03:26:13;;;;;;;33.50;11.53;;;;;;;6.01;48.44;101968.64;126273;1099;104166;-79
2021/10/07 03:28:44;;;;;;;26.57;11.87;;;;;;;5.98;48.61;101973.62;126294;1099;104178;-79
2021/10/07 03:31:17;;;;;;;35.57;10.10;;;;;;;5.98;48.79;101971.91;126274;1099;104153;-79
2021/10/07 03:33:51;;;;;;;30.90;10.77;;;;;;;5.96;48.86;101991.70;126242;1099;102963;-78
2021/10/07 03:36:24;;;;;;;30.37;10.40;;;;;;;5.92;49.02;101987.03;126331;1099;104176;-79
2021/10/07 03:38:54;;;;;;;33.43;11.20;;;;;;;5.82;48.45;101981.91;126297;1099;104224;-79
2021/10/07 03:41:26;;;;;;;35.80;10.37;;;;;;;5.90;49.22;101991.22;126265;1099;104178;-79
2021/10/07 03:43:57;;;;;;;30.97;10.10;;;;;;;5.90;48.50;101994.72;126317;1099;104162;-78
2021/10/07 03:46:28;;;;;;;32.20;10.73;;;;;;;5.89;49.13;101999.81;126323;1099;104275;-79
2021/10/07 03:49:01;;;;;;;35.77;10.83;;;;;;;5.87;48.98;101998.80;126239;1099;104229;-79
2021/10/07 03:51:35;;;;;;;38.10;11.37;;;;;;;5.86;49.22;102007.39;126269;1099;104191;-79
2021/10/07 03:54:06;;;;;;;33.00;10.57;;;;;;;5.84;49.06;102007.27;126242;1099;104204;-78
2021/10/07 03:56:41;;;;;;;29.40;9.90;;;;;;;5.83;49.08;102010.69;126238;1099;104387;-79
2021/10/07 03:59:14;;;;;;;26.30;10.50;;;;;;;5.84;49.24;102014.19;126228;1099;104316;-78
2021/10/07 04:01:49;;;;;;;41.20;11.30;;;;;;;5.85;49.39;102018.62;126244;1099;104156;-79
2021/10/07 04:04:21;;;;;;;31.80;10.63;;;;;;;5.81;49.75;102017.45;126230;1099;104214;-78
2021/10/07 04:06:52;;;;;;;28.80;10.45;;;;;;;5.80;49.68;102025.14;126318;1099;104226;-78
2021/10/07 04:09:23;;;;;;;34.70;10.50;;;;;;;5.75;49.77;102028.31;126315;1099;104243;-78
2021/10/07 04:11:54;;;;;;;45.90;11.50;;;;;;;5.75;49.82;102023.09;126231;1098;105565;-79
2021/10/07 04:14:25;;;;;;;39.60;12.57;;;;;;;5.76;49.98;102024.92;126293;1099;104143;-79
2021/10/07 04:16:55;;;;;;;27.77;9.83;;;;;;;5.71;49.46;102026.23;126248;1099;104150;-79
2021/10/07 04:19:27;;;;;;;31.50;10.23;;;;;;;5.64;49.49;102026.55;126250;1099;104275;-78
2021/10/07 04:21:58;;;;;;;47.00;11.17;;;;;;;5.60;50.02;102024.48;126224;1099;104149;-79
2021/10/07 04:24:29;;;;;;;30.20;9.73;;;;;;;5.54;49.14;102027.48;126247;1099;108001;-78
2021/10/07 04:27:00;;;;;;;35.90;10.23;;;;;;;5.49;49.36;102028.82;126311;1099;104246;-79
2021/10/07 04:29:30;;;;;;;27.17;9.77;;;;;;;5.44;49.73;102034.43;126275;1099;102337;-79
2021/10/07 04:32:01;;;;;;;34.00;9.37;;;;;;;5.37;49.97;102033.03;126334;1096;104146;-78
2021/10/07 04:34:32;;;;;;;34.73;10.20;;;;;;;5.31;49.98;102041.23;126232;1099;118744;-79
2021/10/07 04:37:03;;;;;;;29.73;10.17;;;;;;;5.37;49.87;102046.05;126195;1099;104281;-79
2021/10/07 04:39:36;;;;;;;35.25;10.50;;;;;;;5.38;49.62;102035.77;126323;1099;104147;-79
2021/10/07 04:42:07;;;;;;;30.30;9.63;;;;;;;5.37;49.54;102046.95;126259;1099;104210;-79
2021/10/07 04:44:41;;;;;;;30.90;10.53;;;;;;;5.34;49.65;102053.61;126251;1099;104198;-78
2021/10/07 04:47:13;;;;;;;32.10;10.05;;;;;;;5.29;50.20;102055.83;126261;1099;104226;-78
2021/10/07 04:49:43;;;;;;;32.07;9.90;;;;;;;5.26;49.98;102058.19;126223;1099;104226;-77
2021/10/07 04:52:15;;;;;;;38.40;9.80;;;;;;;5.27;50.15;102061.72;126273;1099;104204;-77
2021/10/07 04:54:45;;;;;;;29.17;9.70;;;;;;;5.31;50.02;102054.26;126280;1099;104179;-78
2021/10/07 04:57:18;;;;;;;31.70;9.63;;;;;;;5.43;50.10;102056.96;126266;1099;104172;-78
2021/10/07 04:59:49;;;;;;;34.03;8.93;;;;;;;5.50;50.35;102058.36;126191;1099;104172;-79
2021/10/07 05:02:20;;;;;;;25.67;9.20;;;;;;;5.54;49.98;102060.44;126260;1098;104413;-79
2021/10/07 05:04:51;;;;;;;29.53;8.37;;;;;;;5.56;49.82;102045.84;126278;1099;104150;-78
2021/10/07 05:07:22;;;;;;;25.00;8.20;;;;;;;5.59;49.83;102056.50;126213;1099;104168;-78
2021/10/07 05:09:52;;;;;;;29.90;8.73;;;;;;;5.63;49.88;102061.19;126326;1097;104146;-78
2021/10/07 05:12:23;;;;;;;21.73;8.83;;;;;;;5.69;50.06;102064.28;126263;1099;104230;-79
2021/10/07 05:14:58;;;;;;;25.53;8.97;;;;;;;5.75;50.23;102063.87;126130;1099;104121;-78
2021/10/07 05:17:29;;;;;;;27.37;8.98;;;;;;;5.85;50.02;102065.52;126173;1099;104172;-79
2021/10/07 05:20:04;;;;;;;26.50;7.83;;;;;;;5.94;49.81;102064.53;126188;1099;104144;-78
2021/10/07 05:22:35;;;;;;;26.05;7.55;;;;;;;5.98;49.86;102064.81;126210;1099;104306;-79
2021/10/07 05:25:07;;;;;;;25.93;8.37;;;;;;;5.99;50.01;102069.25;126216;1099;104149;-79
2021/10/07 05:27:38;;;;;;;27.70;8.47;;;;;;;6.00;49.36;102069.38;126130;1099;104666;-78
2021/10/07 05:30:13;;;;;;;28.60;8.10;;;;;;;6.01;49.70;102073.77;126267;1098;104150;-78
2021/10/07 05:32:47;;;;;;;24.50;8.38;;;;;;;6.06;49.93;102066.33;125232;1099;104176;-79
2021/10/07 05:35:18;;;;;;;30.27;10.48;;;;;;;6.04;49.62;102068.80;125223;1099;104786;-78
2021/10/07 05:37:49;;;;;;;25.73;10.30;;;;;;;6.00;49.74;102069.38;126031;1099;104201;-78
2021/10/07 05:40:20;;;;;;;35.43;10.37;;;;;;;6.04;49.70;102074.02;125232;1099;104188;-78
2021/10/07 05:42:53;;;;;;;45.00;11.60;;;;;;;6.08;49.49;102077.80;126075;1099;104255;-77
2021/10/07 05:45:28;;;;;;;32.77;11.33;;;;;;;6.11;49.43;102076.33;125159;1099;104683;-78
2021/10/07 05:47:58;;;;;;;38.13;11.27;;;;;;;6.15;49.70;102082.69;125199;1102;104189;-78
2021/10/07 05:50:29;;;;;;;34.97;12.83;;;;;;;6.20;49.73;102077.84;125220;1099;104229;-79
2021/10/07 05:53:03;;;;;;;36.37;11.87;;;;;;;6.27;49.82;102075.83;125118;1099;104211;-79
2021/10/07 05:55:34;;;;;;;26.57;10.23;;;;;;;6.32;49.86;102085.72;125692;1099;104219;-78
2021/10/07 05:58:06;;;;;;;27.00;9.37;;;;;;;6.35;49.68;102086.86;125224;1099;104415;-79
2021/10/07 06:00:37;;;;;;;30.27;9.00;;;;;;;6.36;49.77;102091.30;126077;1099;104162;-79
2021/10/07 06:03:11;;;;;;;24.63;8.10;;;;;;;6.36;49.44;102091.30;125096;1099;104360;-76
2021/10/07 06:05:44;;;;;;;27.87;8.40;;;;;;;6.35;49.16;102086.86;126009;1098;104278;-79
2021/10/07 06:08:20;;;;;;;23.67;7.43;;;;;;;6.43;49.28;102090.06;126145;1098;104149;-76
2021/10/07 06:10:51;;;;;;;22.50;7.27;;;;;;;6.55;49.36;102084.91;126035;1099;104211;-76
2021/10/07 06:13:26;;;;;;;23.43;6.77;;;;;;;6.69;49.23;102086.87;125957;1099;104220;-78
2021/10/07 06:15:57;;;;;;;23.83;6.53;;;;;;;6.76;48.96;102076.12;126026;1099;104168;-76
2021/10/07 06:18:34;;;;;;;22.73;7.37;;;;;;;6.89;49.03;102077.02;125873;1099;104787;-77
2021/10/07 06:21:09;;;;;;;20.63;6.77;;;;;;;7.02;49.10;102079.78;125938;1099;104171;-78
2021/10/07 06:23:45;;;;;;;18.40;6.10;;;;;;;7.17;49.12;102073.10;125964;1099;104781;-76
2021/10/07 06:26:22;;;;;;;21.17;5.97;;;;;;;7.29;48.59;102080.95;126039;1099;104146;-77
2021/10/07 06:29:08;;;;;;;16.43;5.87;;;;;;;7.40;48.82;102080.81;125907;1098;104143;-75
2021/10/07 06:31:39;;;;;;;17.70;5.67;;;;;;;7.48;48.73;102077.98;126091;1099;104185;-76
2021/10/07 06:34:10;;;;;;;21.73;6.87;;;;;;;7.50;48.19;102076.39;126132;1099;104239;-77
2021/10/07 06:36:43;;;;;;;20.17;6.33;;;;;;;7.51;47.10;102078.21;126095;1099;104149;-77
2021/10/07 06:39:14;;;;;;;22.30;6.75;;;;;;;7.54;48.00;102067.98;126241;1099;104168;-77
2021/10/07 06:41:46;;;;;;;19.97;6.77;;;;;;;7.65;47.77;102068.77;126215;1099;104335;-78
2021/10/07 06:44:17;;;;;;;19.27;6.20;;;;;;;7.80;48.18;102068.05;126060;1098;104223;-76
2021/10/07 06:46:48;;;;;;;23.27;6.37;;;;;;;7.82;47.66;102072.61;126088;1099;104281;-75
2021/10/07 06:49:20;;;;;;;15.97;6.00;;;;;;;7.91;47.91;102072.34;126088;1099;104268;-76
2021/10/07 06:51:51;;;;;;;18.20;6.07;;;;;;;8.04;47.37;102076.72;126034;1097;104235;-76
2021/10/07 06:54:23;;;;;;;21.97;6.40;;;;;;;8.19;48.05;102076.92;126045;1099;104147;-76
2021/10/07 06:57:00;;;;;;;20.37;5.93;;;;;;;8.32;47.93;102076.06;126125;1098;104582;-79
2021/10/07 06:59:33;;;;;;;14.70;5.70;;;;;;;8.47;48.01;102073.66;126171;1099;104252;-78
2021/10/07 07:02:07;;;;;;;24.27;5.73;;;;;;;8.52;46.85;102069.64;126109;1099;104162;-79
2021/10/07 07:04:40;;;;;;;21.30;6.17;;;;;;;8.60;47.24;102065.83;126116;1099;104213;-77
2021/10/07 07:07:12;;;;;;;22.13;6.27;;;;;;;8.73;47.11;102067.61;126195;1099;102947;-78
2021/10/07 07:09:46;;;;;;;19.33;5.97;;;;;;;8.87;47.10;102061.59;126069;1096;104265;-79
2021/10/07 07:12:23;;;;;;;18.27;6.23;;;;;;;8.98;46.58;102054.45;126030;1099;104309;-76
2021/10/07 07:14:54;;;;;;;19.75;6.28;;;;;;;9.03;47.37;102050.42;126075;1099;104364;-77
2021/10/07 07:17:26;;;;;;;19.47;5.97;;;;;;;9.12;47.22;102042.28;126147;1099;104169;-76
2021/10/07 07:20:00;;;;;;;22.93;6.13;;;;;;;9.20;46.70;102048.03;126146;1099;104201;-77
2021/10/07 07:22:32;;;;;;;16.47;6.00;;;;;;;9.30;46.93;102046.12;126035;1099;104265;-79
2021/10/07 07:25:07;;;;;;;17.30;5.97;;;;;;;9.36;46.17;102048.21;126209;1098;104178;-77
2021/10/07 07:27:38;;;;;;;22.57;6.57;;;;;;;9.25;46.08;102046.61;126482;1099;104156;-77
2021/10/07 07:30:13;;;;;;;21.30;6.23;;;;;;;9.27;46.29;102058.08;126201;1099;104186;-77
2021/10/07 07:32:47;;;;;;;23.93;5.90;;;;;;;9.39;46.59;102058.00;126060;1099;104281;-77
2021/10/07 07:35:22;;;;;;;19.43;5.60;;;;;;;9.38;44.95;102053.55;126197;1099;104309;-78
2021/10/07 07:37:53;;;;;;;25.33;6.50;;;;;;;9.35;45.77;102052.55;126115;1099;104159;-77
2021/10/07 07:40:25;;;;;;;24.57;6.30;;;;;;;9.43;46.54;102046.92;126204;1099;104204;-76
2021/10/07 07:42:58;;;;;;;24.15;6.40;;;;;;;9.56;46.61;102052.12;126135;1098;104143;-77
2021/10/07 07:45:29;;;;;;;22.95;6.00;;;;;;;9.73;46.67;102055.84;126190;1099;104146;-78
2021/10/07 07:48:01;;;;;;;27.03;6.17;;;;;;;9.88;46.04;102045.43;126204;1099;104207;-77
2021/10/07 07:50:33;;;;;;;24.60;6.00;;;;;;;10.00;46.71;102045.28;126237;1099;104179;-77
2021/10/07 07:53:04;;;;;;;20.63;6.50;;;;;;;10.00;45.85;102045.28;126248;1099;104136;-77
2021/10/07 07:55:36;;;;;;;18.83;6.03;;;;;;;10.07;45.85;102052.73;126252;1099;104140;-76
2021/10/07 07:58:17;;;;;;;19.60;7.07;;;;;;;10.12;45.77;102039.91;126132;1099;104229;-77
2021/10/07 08:00:48;;;;;;;21.67;6.47;;;;;;;10.26;45.63;102039.92;126073;1099;104299;-77
2021/10/07 08:03:19;;;;;;;19.15;6.05;;;;;;;10.22;44.73;102031.77;126282;1099;104140;-76
2021/10/07 08:05:57;;;;;;;22.67;6.10;;;;;;;10.24;45.27;102027.55;126216;1099;104201;-77
2021/10/07 08:08:35;;;;;;;20.10;6.13;;;;;;;10.38;45.96;102023.18;126176;1099;104313;-76
2021/10/07 08:11:13;;;;;;;19.27;6.23;;;;;;;10.47;45.60;102022.81;125323;1099;104204;-77
2021/10/07 08:13:48;;;;;;;21.10;6.13;;;;;;;10.59;45.85;102013.05;126205;1099;104303;-77
2021/10/07 08:16:21;;;;;;;20.63;6.73;;;;;;;10.69;45.33;102017.13;126095;1099;105042;-76
2021/10/07 08:18:54;;;;;;;21.17;7.40;;;;;;;10.59;44.88;102013.95;126056;1099;104676;-76
2021/10/07 08:21:25;;;;;;;18.23;6.50;;;;;;;10.65;45.43;102017.77;126219;1099;104208;-75
2021/10/07 08:23:57;;;;;;;16.37;5.40;;;;;;;10.67;45.40;102014.41;126242;1099;104226;-76
2021/10/07 08:26:29;;;;;;;26.53;6.20;;;;;;;10.64;45.02;102022.09;126194;1098;104309;-77
2021/10/07 08:29:00;;;;;;;22.00;6.03;;;;;;;10.74;45.44;102016.59;126185;1099;104143;-77
2021/10/07 08:31:32;;;;;;;21.20;5.87;;;;;;;10.88;45.41;102021.77;126123;1099;104195;-76
2021/10/07 08:34:04;;;;;;;15.20;5.47;;;;;;;10.91;45.15;102014.96;126206;1099;104149;-77
2021/10/07 08:36:42;;;;;;;20.23;6.40;;;;;;;11.05;45.17;102014.88;126204;1099;104258;-79
2021/10/07 08:39:17;;;;;;;24.57;6.53;;;;;;;11.06;45.25;102017.55;126247;1099;104195;-79
2021/10/07 08:41:51;;;;;;;25.30;6.03;;;;;;;11.20;45.71;102017.46;126164;1099;104181;-78
2021/10/07 08:44:29;;;;;;;25.80;5.90;;;;;;;11.34;45.09;102013.89;126063;1099;104155;-77
2021/10/07 08:47:04;;;;;;;22.43;6.90;;;;;;;11.46;45.26;102021.58;126176;1099;104188;-78
2021/10/07 08:49:42;;;;;;;21.60;6.33;;;;;;;11.48;44.63;102023.48;126210;1099;118450;-78
2021/10/07 08:52:17;;;;;;;18.60;5.60;;;;;;;11.54;44.48;102020.27;126172;1099;104341;-79
2021/10/07 08:54:50;;;;;;;26.23;7.03;;;;;;;11.61;44.77;102013.63;126140;1099;104207;-79
2021/10/07 08:57:24;;;;;;;19.33;5.60;;;;;;;11.71;44.71;102015.06;126142;1099;104214;-77
2021/10/07 08:59:58;;;;;;;20.70;5.80;;;;;;;11.85;44.96;102016.72;126180;1099;104281;-78
2021/10/07 09:02:35;;;;;;;20.72;6.03;;;;;;;11.90;44.07;102017.86;126231;1099;104133;-77
2021/10/07 09:05:13;;;;;;;18.13;5.77;;;;;;;11.91;44.55;102022.31;126142;1099;104303;-78
2021/10/07 09:07:58;;;;;;;18.57;5.87;;;;;;;11.85;43.53;102030.77;126123;1099;104140;-78
2021/10/07 09:10:45;;;;;;;23.73;6.23;;;;;;;11.91;44.12;102017.05;126120;1099;110771;-75
2021/10/07 09:13:21;;;;;;;16.53;5.40;;;;;;;12.10;44.06;102020.72;125455;1102;104181;-77
2021/10/07 09:15:58;;;;;;;25.50;5.93;;;;;;;12.10;43.82;102023.34;126056;1099;104152;-76
2021/10/07 09:18:32;;;;;;;25.80;5.70;;;;;;;12.18;43.76;102022.91;125220;1099;104683;-76
2021/10/07 09:21:07;;;;;;;18.67;5.70;;;;;;;12.27;43.79;102024.25;126001;1099;104405;-76
2021/10/07 09:23:41;;;;;;;14.33;4.60;;;;;;;12.36;42.79;102024.73;126083;1099;104319;-77
2021/10/07 09:26:14;;;;;;;21.60;6.15;;;;;;;12.34;42.80;102029.00;125982;1099;104142;-78
2021/10/07 09:29:04;;;;;;;16.87;5.77;;;;;;;12.41;42.89;102028.51;126020;1099;104255;-78
2021/10/07 09:31:38;;;;;;;24.90;6.17;;;;;;;12.48;43.32;102030.66;125214;1099;104213;-77
2021/10/07 09:34:11;;;;;;;21.33;5.53;;;;;;;12.57;42.85;102015.33;126057;1099;104271;-76
2021/10/07 09:36:45;;;;;;;18.23;5.40;;;;;;;12.58;41.99;102016.23;126052;1099;104297;-76
2021/10/07 09:39:22;;;;;;;18.90;4.60;;;;;;;12.65;42.89;102001.64;126076;1099;104169;-75
2021/10/07 09:41:53;;;;;;;18.67;5.23;;;;;;;12.68;42.32;101996.52;126068;1099;104251;-75
2021/10/07 09:44:26;;;;;;;20.93;5.90;;;;;;;12.75;42.22;101990.76;126135;1099;104166;-76
2021/10/07 09:47:01;;;;;;;18.33;5.47;;;;;;;12.88;42.50;101995.80;126190;1099;104367;-75
2021/10/07 09:49:37;;;;;;;21.90;5.13;;;;;;;12.91;42.14;101995.06;125143;1102;104283;-76
2021/10/07 09:52:14;;;;;;;21.37;5.67;;;;;;;12.99;41.76;101987.53;125110;1100;104158;-75
2021/10/07 09:54:45;;;;;;;13.07;4.60;;;;;;;13.10;41.94;101976.71;125156;1099;104338;-76
2021/10/07 09:57:16;;;;;;;15.00;5.00;;;;;;;13.12;41.67;101974.16;125087;1099;104268;-76
2021/10/07 10:00:01;;;;;;;17.37;4.97;;;;;;;13.11;40.55;101974.97;125124;1102;104360;-76
2021/10/07 10:02:37;;;;;;;18.43;5.37;;;;;;;13.15;41.36;101958.48;125139;1099;104370;-78
2021/10/07 10:05:12;;;;;;;15.90;5.03;;;;;;;13.28;41.12;101946.79;125094;1099;104213;-78
2021/10/07 10:07:46;;;;;;;15.55;5.05;;;;;;;13.17;40.92;101940.11;125282;1099;104332;-79
2021/10/07 10:10:19;;;;;;;14.73;4.03;;;;;;;13.23;39.81;101936.02;125880;1099;104241;-79
2021/10/07 10:12:51;;;;;;;;;;;;;;;13.24;39.37;101940.45;126038;1099;104198;-79
2021/10/07 10:15:25;;;;;;;20.03;5.57;;;;;;;13.31;41.00;101934.65;125847;1099;104249;-81
2021/10/07 10:17:58;;;;;;;14.20;4.43;;;;;;;13.34;38.94;101933.94;125873;1099;104146;-79
2021/10/07 10:20:36;;;;;;;20.73;5.33;;;;;;;13.33;39.73;101941.73;125851;1099;104735;-80
2021/10/07 10:23:14;;;;;;;17.17;4.80;;;;;;;13.34;39.94;101938.28;125864;1099;104261;-80
2021/10/07 10:26:00;;;;;;;14.87;5.17;;;;;;;13.37;39.73;101938.42;125823;1100;104168;-80
2021/10/07 10:28:51;;;;;;;16.83;5.17;;;;;;;13.45;39.18;101935.34;126168;1099;104232;-78
2021/10/07 10:31:33;;;;;;;21.43;4.53;;;;;;;13.41;38.77;101937.75;126087;1099;104322;-78
2021/10/07 10:34:12;;;;;;;24.00;5.23;;;;;;;13.30;38.71;101934.58;126040;1099;104165;-78
2021/10/07 10:36:47;;;;;;;20.00;5.00;;;;;;;13.29;39.03;101928.41;126074;1099;104373;-79
2021/10/07 10:39:26;;;;;;;19.17;4.57;;;;;;;13.33;38.82;101925.92;126121;1097;104638;-77
2021/10/07 10:42:01;;;;;;;16.60;5.00;;;;;;;13.41;38.51;101916.66;126255;1099;104596;-76
2021/10/07 10:44:42;;;;;;;14.55;4.00;;;;;;;13.47;37.44;101920.48;125925;1099;104204;-76
2021/10/07 10:47:25;;;;;;;18.80;4.57;;;;;;;13.47;38.45;101903.77;126038;1099;104172;-77
2021/10/07 10:50:13;;;;;;;19.43;5.30;;;;;;;13.54;39.05;101903.23;125940;1098;104165;-77
2021/10/07 10:52:47;;;;;;;16.57;4.63;;;;;;;13.65;38.73;101909.89;125893;1099;104258;-76
2021/10/07 10:55:20;;;;;;;20.93;5.17;;;;;;;13.76;38.49;101912.09;126232;1099;104193;-77
2021/10/07 10:58:02;;;;;;;22.07;5.60;;;;;;;13.78;38.01;101916.61;126196;1099;104153;-78
2021/10/07 11:00:37;;;;;;;22.50;6.20;;;;;;;13.65;37.37;101915.16;126182;1099;104156;-77
2021/10/07 11:03:29;;;;;;;17.43;5.10;;;;;;;13.59;36.95;101909.61;126179;1099;105063;-78
2021/10/07 11:06:06;;;;;;;17.93;4.70;;;;;;;13.65;38.20;101888.79;126282;1099;104140;-78
2021/10/07 11:08:53;;;;;;;16.83;4.67;;;;;;;13.60;37.32;101898.23;126114;1099;104573;-75
2021/10/07 11:11:36;;;;;;;18.67;5.57;;;;;;;13.62;37.97;101893.92;126011;1099;104288;-78
2021/10/07 11:14:17;;;;;;;15.68;4.78;;;;;;;13.71;37.77;101895.16;126074;1099;104492;-77
2021/10/07 11:16:52;;;;;;;17.33;5.23;;;;;;;13.81;38.18;101902.67;126167;1099;104156;-77
2021/10/07 11:19:27;;;;;;;21.07;4.67;;;;;;;13.87;38.25;101891.47;125354;1099;104383;-79
2021/10/07 11:22:14;;;;;;;19.40;4.83;;;;;;;14.03;37.81;101896.60;126088;1099;104181;-78
2021/10/07 11:24:53;;;;;;;15.57;4.77;;;;;;;14.08;38.41;101894.16;126166;1099;104300;-77
2021/10/07 11:27:41;;;;;;;14.90;4.70;;;;;;;14.06;37.38;101883.54;125977;1098;104325;-78
2021/10/07 11:30:19;;;;;;;15.17;4.00;;;;;;;14.03;37.40;101884.30;125849;1099;104351;-76
2021/10/07 11:32:50;;;;;;;15.07;4.33;;;;;;;14.07;37.53;101880.08;126051;1099;104172;-77
2021/10/07 11:35:38;;;;;;;17.13;5.10;;;;;;;14.08;36.88;101884.50;125396;1099;104309;-76